Time;durP1;ratioP1;P1;durP2;ratioP2;P2;SDS_P1;SDS_P2;PMS_P1;PMS_P2;Temp;Humidity;BMP_temperature;BMP_pressure;BME280_temperature;BME280_humidity;BME280_pressure;Samples;Min_cycle;Max_cycle;Signal;HPM_P1;HPM_P2
2022/09/03 00:02:59;;;;;;;2.85;1.90;;;19.50;48.40;;;22.33;35.19;97222.66;5025033;28;20052;-40
2022/09/03 00:05:44;;;;;;;1.67;1.52;;;19.40;48.50;;;22.31;35.55;97217.47;5024792;28;20046;-39
2022/09/03 00:08:32;;;;;;;2.33;2.05;;;19.30;48.80;;;22.27;35.76;97219.03;5056440;28;20056;-39
2022/09/03 00:11:17;;;;;;;2.25;1.80;;;19.30;49.10;;;22.27;35.55;97207.38;5054793;28;20045;-39
2022/09/03 00:13:50;;;;;;;5.10;2.20;;;19.20;48.90;;;22.24;35.98;97214.09;5024687;28;20037;-40
2022/09/03 00:16:24;;;;;;;2.78;2.10;;;19.20;49.00;;;22.23;36.02;97213.25;5056389;28;20042;-39
2022/09/03 00:18:59;;;;;;;2.15;1.95;;;19.20;48.90;;;22.23;36.14;97207.03;5055206;28;20340;-39
2022/09/03 00:21:44;;;;;;;2.80;2.20;;;19.30;49.10;;;22.19;36.06;97216.72;5055630;28;20056;-39
2022/09/03 00:24:16;;;;;;;2.10;1.90;;;19.20;49.10;;;22.16;36.06;97215.34;5024526;28;20057;-39
2022/09/03 00:26:53;;;;;;;3.22;1.80;;;19.10;49.60;;;22.12;36.00;97216.91;5055657;28;20046;-39
2022/09/03 00:29:34;;;;;;;5.93;2.28;;;19.10;50.10;;;22.07;36.23;97211.38;5054348;28;20050;-39
2022/09/03 00:32:12;;;;;;;2.55;2.10;;;19.00;50.30;;;22.07;36.72;97213.28;5054500;28;20060;-39
2022/09/03 00:34:51;;;;;;;3.55;1.98;;;19.10;50.10;;;22.10;36.24;97216.31;5054240;28;20384;-40
2022/09/03 00:37:20;;;;;;;2.88;2.40;;;19.10;50.00;;;22.12;36.18;97216.03;5054880;28;20046;-39
2022/09/03 00:39:48;;;;;;;2.38;2.17;;;19.10;49.50;;;22.12;36.38;97211.47;5024427;28;20058;-39
2022/09/03 00:43:00;;;;;;;3.78;2.28;;;19.20;49.40;;;22.12;36.15;97213.34;5024059;28;20050;-39
2022/09/03 00:45:47;;;;;;;2.60;2.20;;;19.20;49.40;;;22.15;36.08;97208.25;5024216;28;20056;-39
2022/09/03 00:48:26;;;;;;;2.30;1.80;;;19.30;49.40;;;22.19;35.88;97201.25;5054099;28;20247;-40
2022/09/03 00:50:59;;;;;;;4.80;2.03;;;19.30;48.70;;;22.20;35.92;97208.34;5023984;28;20056;-39
2022/09/03 00:53:50;;;;;;;2.40;2.05;;;19.30;49.00;;;22.17;36.13;97200.69;5023205;28;20058;-39
2022/09/03 00:56:42;;;;;;;3.25;1.75;;;19.30;49.20;;;22.21;36.37;97204.56;5051495;28;20056;-39
2022/09/03 00:59:34;;;;;;;5.35;2.17;;;19.30;49.70;;;22.20;36.48;97204.81;5038497;28;20262;-39
2022/09/03 01:02:27;;;;;;;2.03;1.77;;;19.30;49.90;;;22.22;36.24;97202.69;5023831;28;20061;-39
2022/09/03 01:05:15;;;;;;;3.67;2.13;;;19.30;50.10;;;22.25;36.44;97206.81;5051997;28;20042;-39
2022/09/03 01:08:00;;;;;;;3.70;2.25;;;19.30;50.60;;;22.23;36.47;97209.72;5053633;28;20060;-39
2022/09/03 01:10:33;;;;;;;3.85;2.40;;;19.20;50.20;;;22.17;36.96;97218.84;5051501;28;20171;-39
2022/09/03 01:13:20;;;;;;;3.55;3.00;;;19.10;50.70;;;22.11;36.91;97212.53;5023749;28;20046;-39
2022/09/03 01:16:05;;;;;;;4.43;2.35;;;19.10;51.00;;;22.07;36.60;97205.97;5024001;28;20344;-39
2022/09/03 01:18:57;;;;;;;3.22;2.30;;;19.10;51.00;;;22.06;36.85;97206.19;5023039;28;20046;-39
2022/09/03 01:21:48;;;;;;;5.05;2.10;;;19.10;50.60;;;22.06;36.67;97200.78;5023564;28;20046;-39
2022/09/03 01:24:58;;;;;;;2.00;1.80;;;19.10;50.30;;;22.07;36.67;97207.84;5023271;28;20048;-39
2022/09/03 01:28:19;;;;;;;3.95;2.30;;;19.10;50.20;;;22.06;36.38;97211.63;5048879;28;20042;-39
2022/09/03 01:31:25;;;;;;;2.30;2.10;;;19.10;50.40;;;22.06;36.42;97209.72;5038543;28;20041;-39
2022/09/03 01:34:00;;;;;;;3.03;2.20;;;19.10;50.40;;;22.07;36.77;97205.97;5022801;28;20041;-39
2022/09/03 01:37:21;;;;;;;3.00;2.00;;;19.10;50.10;;;22.05;36.94;97210.81;5023257;28;20104;-39
2022/09/03 01:40:30;;;;;;;3.78;2.00;;;19.10;50.50;;;22.05;36.55;97204.56;5020826;28;20248;-39
2022/09/03 01:43:19;;;;;;;3.13;2.50;;;19.10;50.60;;;21.99;37.02;97211.78;5019244;28;20046;-39
2022/09/03 01:45:59;;;;;;;2.60;1.77;;;19.00;50.60;;;21.94;37.24;97208.97;5022474;28;20356;-39
2022/09/03 01:49:15;;;;;;;3.25;2.38;;;19.00;51.20;;;21.91;37.20;97209.47;5022660;28;20358;-39
2022/09/03 01:51:44;;;;;;;3.65;2.25;;;18.90;51.70;;;21.90;37.12;97207.81;5026294;28;20268;-39
2022/09/03 01:54:33;;;;;;;3.47;2.05;;;18.90;51.90;;;21.87;37.27;97213.72;5051614;28;20050;-39
2022/09/03 01:57:26;;;;;;;3.65;2.10;;;18.90;51.20;;;21.87;37.49;97211.84;5023029;28;20045;-39
2022/09/03 02:00:21;;;;;;;3.00;2.03;;;18.90;51.80;;;21.92;37.38;97205.69;5047146;28;20052;-40
2022/09/03 02:02:51;;;;;;;3.88;2.42;;;18.90;51.50;;;21.94;37.73;97211.69;5023132;28;20060;-39
2022/09/03 02:05:24;;;;;;;5.57;1.90;;;19.00;51.80;;;21.95;37.91;97216.06;5022627;28;20060;-39
2022/09/03 02:08:10;;;;;;;4.00;2.28;;;19.00;51.90;;;21.95;37.84;97219.59;5022359;28;20072;-39
2022/09/03 02:10:52;;;;;;;2.80;2.15;;;19.00;52.60;;;21.95;37.53;97218.75;5022602;28;20068;-39
2022/09/03 02:13:26;;;;;;;4.25;2.63;;;19.00;52.60;;;21.95;37.70;97214.16;5022675;28;20056;-39
2022/09/03 02:16:01;;;;;;;5.95;2.33;;;19.00;52.70;;;21.90;37.89;97214.06;5054026;28;20076;-39
2022/09/03 02:18:36;;;;;;;3.35;1.95;;;18.90;52.50;;;21.83;37.99;97208.81;5052837;28;20249;-39
2022/09/03 02:21:05;;;;;;;3.78;2.20;;;18.80;52.20;;;21.80;37.84;97201.16;5037577;28;20060;-39
2022/09/03 02:23:34;;;;;;;2.88;1.88;;;18.90;51.90;;;21.81;37.87;97215.53;5022570;28;20050;-40
2022/09/03 02:26:02;;;;;;;2.33;1.80;;;18.90;51.90;;;21.81;37.39;97226.38;5022007;28;20050;-39
2022/09/03 02:28:31;;;;;;;2.70;2.50;;;18.90;51.60;;;21.78;37.67;97224.97;5022395;28;20058;-39
2022/09/03 02:30:59;;;;;;;2.00;1.80;;;18.80;51.60;;;21.77;37.74;97225.19;5053841;28;20050;-39
2022/09/03 02:33:39;;;;;;;3.00;1.90;;;18.80;51.80;;;21.75;37.70;97230.03;5022392;28;20049;-38
2022/09/03 02:36:15;;;;;;;3.33;2.22;;;18.80;52.40;;;21.73;37.87;97226.75;5053583;28;20053;-39
2022/09/03 02:38:45;;;;;;;2.40;2.20;;;18.80;52.40;;;21.69;38.23;97223.69;5053057;28;20064;-39
2022/09/03 02:41:14;;;;;;;4.00;2.40;;;18.70;52.50;;;21.67;37.91;97223.13;5022396;28;20056;-39
2022/09/03 02:43:52;;;;;;;2.50;2.00;;;18.70;52.60;;;21.61;38.41;97216.78;5022654;28;20045;-39
2022/09/03 02:46:31;;;;;;;4.80;2.20;;;18.70;53.40;;;21.57;38.23;97212.13;5022090;28;20057;-39
2022/09/03 02:48:59;;;;;;;3.60;2.20;;;18.60;53.20;;;21.52;38.34;97210.13;5051924;28;20060;-39
2022/09/03 02:51:36;;;;;;;2.40;2.03;;;18.50;53.40;;;21.51;38.09;97210.38;5022006;28;20053;-39
2022/09/03 02:54:05;;;;;;;2.38;2.17;;;18.50;53.10;;;21.51;38.46;97197.66;5021052;28;20049;-39
2022/09/03 02:56:33;;;;;;;3.92;3.35;;;18.50;52.80;;;21.50;37.99;97204.16;5022066;28;20045;-39
2022/09/03 02:59:03;;;;;;;3.10;2.67;;;18.50;52.70;;;21.52;38.32;97198.47;5022482;28;20046;-39
2022/09/03 03:01:31;;;;;;;4.15;2.10;;;18.60;52.60;;;21.53;37.91;97197.41;5022032;28;20052;-39
2022/09/03 03:03:59;;;;;;;2.35;1.90;;;18.70;52.30;;;21.57;37.86;97199.38;5023521;28;20333;-39
2022/09/03 03:06:27;;;;;;;2.63;1.98;;;18.70;52.10;;;21.61;37.79;97216.78;5025855;28;20056;-39
2022/09/03 03:08:55;;;;;;;3.38;1.90;;;18.80;51.70;;;21.63;37.82;97213.84;5025413;28;20049;-39
2022/09/03 03:11:25;;;;;;;2.85;1.75;;;18.80;51.40;;;21.66;37.58;97207.97;5026487;28;20497;-39
2022/09/03 03:13:53;;;;;;;2.03;1.73;;;18.80;51.30;;;21.70;37.89;97208.28;5026225;28;20068;-39
2022/09/03 03:16:21;;;;;;;2.63;2.35;;;18.80;51.20;;;21.73;37.51;97214.06;5025578;28;20042;-39
2022/09/03 03:18:49;;;;;;;2.30;1.92;;;18.90;51.20;;;21.73;37.87;97211.34;5025661;28;20045;-39
2022/09/03 03:21:18;;;;;;;4.03;1.80;;;18.90;51.20;;;21.73;37.34;97218.63;5025792;28;20052;-40
2022/09/03 03:23:46;;;;;;;2.40;2.05;;;18.80;51.30;;;21.70;37.67;97216.41;5026222;28;20390;-39
2022/09/03 03:26:17;;;;;;;2.70;2.13;;;18.80;51.60;;;21.69;37.88;97218.28;5026100;28;20060;-39
2022/09/03 03:28:47;;;;;;;2.40;2.03;;;18.80;51.80;;;21.69;37.88;97212.88;5025311;28;20054;-39
2022/09/03 03:31:19;;;;;;;2.50;2.00;;;18.80;51.80;;;21.69;38.45;97220.19;5025445;28;20352;-39
2022/09/03 03:33:59;;;;;;;5.93;2.35;;;18.90;52.10;;;21.69;38.05;97210.16;5025635;28;20056;-40
2022/09/03 03:36:31;;;;;;;3.08;2.20;;;18.80;52.50;;;21.68;38.37;97210.44;5025488;28;20042;-39
2022/09/03 03:39:00;;;;;;;2.67;1.90;;;18.80;52.40;;;21.67;38.36;97211.47;5025259;28;20072;-39
2022/09/03 03:41:32;;;;;;;3.10;2.05;;;18.80;52.20;;;21.66;38.43;97207.97;5056681;28;20052;-39
2022/09/03 03:44:04;;;;;;;2.88;2.67;;;18.90;52.20;;;21.65;38.26;97216.31;5025290;28;20037;-39
2022/09/03 03:46:38;;;;;;;5.87;2.50;;;18.80;52.40;;;21.64;38.56;97215.50;5025462;28;20060;-39
2022/09/03 03:49:07;;;;;;;5.82;2.20;;;18.80;52.90;;;21.55;38.75;97212.34;5025889;28;20064;-39
2022/09/03 03:51:36;;;;;;;3.17;2.10;;;18.70;53.20;;;21.53;38.81;97206.34;5023861;28;20053;-39
2022/09/03 03:54:04;;;;;;;3.85;2.53;;;18.60;53.20;;;21.50;38.96;97211.44;5023761;28;20057;-39
2022/09/03 03:56:34;;;;;;;5.38;2.40;;;18.50;53.50;;;21.49;38.61;97218.75;5025017;28;20071;-39
2022/09/03 03:59:03;;;;;;;2.58;2.38;;;18.60;53.40;;;21.49;38.87;97218.75;5024866;28;20037;-39
2022/09/03 04:01:31;;;;;;;3.05;2.22;;;18.60;53.50;;;21.50;38.73;97216.84;5056600;28;20042;-39
2022/09/03 04:03:59;;;;;;;2.95;2.05;;;18.60;53.70;;;21.52;38.79;97218.25;5024693;28;20235;-39
2022/09/03 04:06:28;;;;;;;3.13;2.33;;;18.60;53.50;;;21.53;39.09;97222.59;5024972;28;20078;-39
2022/09/03 04:08:56;;;;;;;3.20;2.13;;;18.60;53.50;;;21.56;38.78;97222.13;5025327;28;20087;-39
2022/09/03 04:11:25;;;;;;;2.70;2.38;;;18.60;53.60;;;21.56;38.94;97211.31;5025432;28;20155;-39
2022/09/03 04:13:53;;;;;;;4.93;2.33;;;18.60;53.70;;;21.55;38.94;97212.34;5025287;28;20053;-39
2022/09/03 04:16:26;;;;;;;2.72;2.10;;;18.60;53.80;;;21.59;38.78;97215.41;5023817;28;20057;-39
2022/09/03 04:18:55;;;;;;;5.22;2.40;;;18.70;54.30;;;21.57;39.01;97215.63;5024501;28;20050;-39
2022/09/03 04:21:29;;;;;;;2.95;2.25;;;18.60;54.30;;;21.53;39.12;97217.19;5024670;28;20052;-39
2022/09/03 04:23:57;;;;;;;2.67;2.10;;;18.60;54.50;;;21.50;39.51;97216.84;5024461;28;20060;-40
2022/09/03 04:26:31;;;;;;;3.55;2.30;;;18.60;54.50;;;21.50;39.68;97214.13;5024557;28;20111;-39
2022/09/03 04:29:08;;;;;;;3.30;2.80;;;18.60;54.70;;;21.54;39.69;97220.72;5024312;28;20048;-39
2022/09/03 04:31:37;;;;;;;4.45;2.40;;;18.60;54.70;;;21.54;39.25;97224.25;5024596;28;20052;-39
2022/09/03 04:34:06;;;;;;;3.30;2.83;;;18.60;54.90;;;21.56;39.52;97216.72;5023959;28;20056;-39
2022/09/03 04:36:36;;;;;;;4.30;2.47;;;18.60;55.00;;;21.55;39.59;97212.34;5024373;28;20045;-39
2022/09/03 04:39:04;;;;;;;3.60;2.72;;;18.60;54.90;;;21.58;39.41;97220.00;5023875;28;20323;-40
2022/09/03 04:41:31;;;;;;;2.75;2.53;;;18.60;54.90;;;21.59;39.75;97213.50;5022036;28;20050;-39
2022/09/03 04:43:59;;;;;;;2.83;2.55;;;18.70;55.10;;;21.57;39.69;97218.34;5024180;28;20042;-39
2022/09/03 04:46:32;;;;;;;4.25;2.60;;;18.70;55.00;;;21.56;39.69;97224.84;5024273;28;20048;-39
2022/09/03 04:49:01;;;;;;;3.03;2.35;;;18.70;55.10;;;21.55;39.72;97223.19;5023984;28;20041;-39
2022/09/03 04:51:30;;;;;;;3.08;2.60;;;18.70;55.20;;;21.53;40.08;97219.09;5024020;28;20390;-39
2022/09/03 04:54:00;;;;;;;3.30;2.40;;;18.60;55.40;;;21.50;40.30;97225.81;5054255;28;20056;-39
2022/09/03 04:56:32;;;;;;;3.50;2.28;;;18.60;55.90;;;21.49;40.17;97226.84;5023940;28;20045;-39
2022/09/03 04:59:07;;;;;;;4.18;2.95;;;18.60;56.00;;;21.49;40.55;97224.16;5024335;28;20060;-39
2022/09/03 05:01:38;;;;;;;3.70;2.50;;;18.60;56.50;;;21.47;40.54;97234.41;5023932;28;20216;-39
2022/09/03 05:04:07;;;;;;;3.78;2.50;;;18.60;56.50;;;21.46;40.74;97229.22;5023952;28;20344;-39
2022/09/03 05:06:36;;;;;;;4.28;2.75;;;18.60;56.40;;;21.43;40.94;97225.94;5023581;28;20060;-39
2022/09/03 05:09:05;;;;;;;3.80;2.53;;;18.60;56.40;;;21.45;41.02;97220.28;5023598;28;20045;-39
2022/09/03 05:11:32;;;;;;;4.50;2.40;;;18.60;56.60;;;21.51;40.79;97223.91;5023614;28;20050;-39
2022/09/03 05:14:01;;;;;;;4.80;2.88;;;18.60;56.90;;;21.53;41.18;97238.03;5055099;28;20046;-39
2022/09/03 05:16:29;;;;;;;3.33;2.50;;;18.70;57.00;;;21.55;40.95;97235.91;5024010;28;20068;-39
2022/09/03 05:18:59;;;;;;;4.85;2.83;;;18.70;57.40;;;21.56;41.30;97235.69;5023406;28;20057;-39
2022/09/03 05:21:28;;;;;;;3.75;2.60;;;18.60;57.50;;;21.52;41.05;97239.09;5023806;28;20256;-39
2022/09/03 05:23:58;;;;;;;5.20;2.40;;;18.60;57.50;;;21.46;41.34;97237.34;5023232;28;20379;-39
2022/09/03 05:26:30;;;;;;;4.80;3.42;;;18.50;57.80;;;21.42;41.13;97239.69;5022862;28;20045;-39
2022/09/03 05:29:01;;;;;;;3.05;2.72;;;18.40;58.00;;;21.37;41.73;97239.59;5022648;28;20244;-39
2022/09/03 05:31:30;;;;;;;2.95;2.67;;;18.40;58.60;;;21.35;42.19;97239.00;5054793;28;20245;-39
2022/09/03 05:34:02;;;;;;;3.75;2.88;;;18.40;59.30;;;21.37;41.83;97236.88;5023508;28;20049;-39
2022/09/03 05:36:34;;;;;;;3.65;2.70;;;18.40;59.50;;;21.42;42.56;97236.97;5054480;28;20069;-39
2022/09/03 05:39:04;;;;;;;3.72;2.80;;;18.50;60.80;;;21.47;42.53;97247.94;5022890;28;20056;-39
2022/09/03 05:41:32;;;;;;;4.80;3.65;;;18.50;60.30;;;21.53;42.88;97251.56;5023435;28;20299;-39
2022/09/03 05:44:02;;;;;;;3.97;3.10;;;18.60;61.00;;;21.56;42.67;97245.69;5054366;28;20058;-39
2022/09/03 05:46:32;;;;;;;4.18;2.88;;;18.60;60.70;;;21.59;42.77;97247.91;5023718;28;20056;-39
2022/09/03 05:49:03;;;;;;;5.25;2.92;;;18.60;60.40;;;21.61;42.29;97248.47;5022389;28;20056;-39
2022/09/03 05:51:34;;;;;;;4.03;2.88;;;18.70;60.20;;;21.64;42.29;97239.88;5054250;28;20244;-39
2022/09/03 05:54:02;;;;;;;3.78;2.85;;;18.70;59.80;;;21.67;42.47;97247.50;5021632;28;20061;-39
2022/09/03 05:56:32;;;;;;;5.65;3.03;;;18.80;59.90;;;21.68;42.29;97248.34;5023043;28;20045;-39
2022/09/03 05:59:05;;;;;;;4.22;3.25;;;18.80;60.00;;;21.74;42.35;97241.97;5022257;28;20042;-39
2022/09/03 06:01:36;;;;;;;5.00;2.78;;;18.90;60.00;;;21.80;42.56;97254.53;5022950;28;20064;-39
2022/09/03 06:04:09;;;;;;;4.72;3.45;;;18.90;60.20;;;21.82;42.51;97252.41;5022675;28;20052;-39
2022/09/03 06:06:42;;;;;;;4.70;3.20;;;18.90;60.30;;;21.85;42.92;97262.75;5054165;28;20229;-39
2022/09/03 06:09:14;;;;;;;4.75;2.80;;;18.90;61.00;;;21.88;42.99;97269.56;5022546;28;20050;-39
2022/09/03 06:11:44;;;;;;;4.22;3.08;;;18.90;61.30;;;21.89;42.83;97263.06;5054573;28;20097;-39
2022/09/03 06:14:14;;;;;;;3.88;2.83;;;19.00;60.60;;;21.89;42.51;97260.38;5053557;28;20243;-39
2022/09/03 06:16:45;;;;;;;3.70;2.55;;;19.00;60.30;;;21.90;42.58;97270.16;5022761;28;20060;-39
2022/09/03 06:19:13;;;;;;;5.47;3.38;;;19.10;60.30;;;21.91;42.70;97264.50;5022293;28;20048;-39
2022/09/03 06:21:43;;;;;;;3.22;2.92;;;19.00;60.30;;;21.91;42.61;97266.38;5022644;28;20046;-39
2022/09/03 06:24:16;;;;;;;3.92;3.20;;;19.00;60.40;;;21.95;42.75;97267.53;5021928;28;20046;-39
2022/09/03 06:26:45;;;;;;;3.17;2.75;;;19.10;60.70;;;21.97;42.91;97274.34;5053189;28;20052;-39
2022/09/03 06:29:14;;;;;;;3.60;3.30;;;19.00;60.30;;;21.98;43.11;97272.47;5022152;28;20046;-39
2022/09/03 06:31:42;;;;;;;3.25;2.78;;;19.10;60.60;;;21.99;42.81;97276.81;5022434;28;20056;-39
2022/09/03 06:34:10;;;;;;;4.13;2.97;;;19.00;60.60;;;21.97;43.16;97271.66;5022194;28;20050;-39
2022/09/03 06:36:42;;;;;;;6.38;3.22;;;19.00;60.80;;;22.05;42.68;97270.44;5022280;28;20256;-39
2022/09/03 06:39:10;;;;;;;3.40;2.97;;;19.00;60.60;;;22.10;42.84;97267.81;5021678;28;20263;-39
2022/09/03 06:41:38;;;;;;;3.53;3.22;;;19.20;60.90;;;22.14;42.68;97273.53;5022400;28;20052;-40
2022/09/03 06:44:10;;;;;;;4.05;3.25;;;19.20;61.00;;;22.15;43.06;97273.31;5053474;28;20263;-39
2022/09/03 06:46:43;;;;;;;3.95;3.10;;;19.20;61.90;;;22.15;43.49;97272.50;5022358;28;20046;-39
2022/09/03 06:49:11;;;;;;;4.68;3.97;;;19.20;62.20;;;22.17;43.28;97275.78;5021797;28;20046;-39
2022/09/03 06:51:39;;;;;;;6.82;4.22;;;19.20;62.50;;;22.18;43.32;97274.72;5022444;28;20054;-39
2022/09/03 06:54:10;;;;;;;3.88;3.47;;;19.20;62.70;;;22.20;43.85;97272.59;5021994;28;20068;-40
2022/09/03 06:56:41;;;;;;;5.63;3.58;;;19.30;63.00;;;22.26;43.68;97266.22;5053094;28;20056;-39
2022/09/03 06:59:13;;;;;;;4.97;3.95;;;19.40;62.90;;;22.28;44.03;97266.78;5021565;28;20048;-40
2022/09/03 07:01:43;;;;;;;6.07;3.72;;;19.40;63.00;;;22.33;43.86;97272.31;5022549;28;20356;-39
2022/09/03 07:04:18;;;;;;;4.50;3.35;;;19.40;63.00;;;22.39;44.04;97271.31;5021824;28;20045;-39
2022/09/03 07:06:47;;;;;;;3.83;3.40;;;19.50;62.70;;;22.46;43.74;97271.16;5022053;28;20356;-39
2022/09/03 07:09:17;;;;;;;5.72;2.90;;;19.60;62.00;;;22.52;43.18;97269.34;5020640;28;20046;-40
2022/09/03 07:11:45;;;;;;;5.15;3.20;;;19.70;61.20;;;22.51;43.28;97263.09;5022001;28;20332;-40
2022/09/03 07:14:19;;;;;;;3.45;3.15;;;19.70;61.50;;;22.56;43.59;97284.06;5021670;28;20057;-40
2022/09/03 07:16:49;;;;;;;4.30;3.30;;;19.80;61.20;;;22.58;43.03;97285.44;5022100;28;20052;-39
2022/09/03 07:19:17;;;;;;;4.28;2.78;;;19.80;61.10;;;22.61;43.45;97295.81;5021781;28;20050;-39
2022/09/03 07:21:45;;;;;;;4.93;3.20;;;19.80;61.10;;;22.66;43.50;97286.09;5022015;28;20046;-39
2022/09/03 07:24:20;;;;;;;7.68;3.67;;;19.80;61.70;;;22.73;44.06;97284.88;5021729;28;20052;-39
2022/09/03 07:26:49;;;;;;;6.65;3.90;;;19.90;62.50;;;22.79;43.60;97294.72;5021505;28;20050;-39
2022/09/03 07:29:20;;;;;;;4.28;3.50;;;19.90;62.70;;;22.79;44.15;97296.63;5021703;28;20045;-40
2022/09/03 07:31:50;;;;;;;4.15;3.75;;;19.90;63.10;;;22.78;43.87;97295.81;5022483;28;20060;-40
2022/09/03 07:34:23;;;;;;;4.28;3.83;;;19.90;63.20;;;22.81;44.19;97294.47;5021641;28;20287;-39
2022/09/03 07:36:53;;;;;;;5.00;4.05;;;19.90;63.30;;;22.82;44.45;97298.84;5021749;28;20056;-40
2022/09/03 07:39:21;;;;;;;4.70;4.30;;;19.90;63.90;;;22.80;44.23;97293.66;5021343;28;20061;-40
2022/09/03 07:41:49;;;;;;;4.30;3.90;;;19.80;63.60;;;22.78;44.57;97298.53;5019718;28;20069;-39
2022/09/03 07:44:18;;;;;;;4.80;4.30;;;19.80;64.20;;;22.78;44.29;97301.22;5021603;28;20052;-40
2022/09/03 07:46:49;;;;;;;5.18;4.40;;;19.80;64.00;;;22.84;44.16;97296.72;5021446;28;20050;-39
2022/09/03 07:49:20;;;;;;;4.55;3.97;;;19.90;63.80;;;22.85;44.09;97294.81;5021539;28;20054;-40
2022/09/03 07:51:51;;;;;;;5.15;4.32;;;19.80;63.60;;;22.80;43.94;97299.09;5024178;28;20049;-39
2022/09/03 07:54:20;;;;;;;4.22;3.85;;;19.80;64.00;;;22.84;43.99;97301.28;5024135;28;20053;-39
2022/09/03 07:56:48;;;;;;;5.07;4.57;;;19.80;64.40;;;22.70;44.55;97295.38;5025029;28;20045;-39
2022/09/03 07:59:16;;;;;;;4.70;4.00;;;19.70;64.80;;;22.66;44.27;97305.09;5024759;28;20052;-39
2022/09/03 08:01:43;;;;;;;4.07;3.75;;;19.60;64.50;;;22.53;44.94;97304.38;5025018;28;20056;-39
2022/09/03 08:04:12;;;;;;;4.38;3.85;;;19.40;65.50;;;22.40;44.78;97313.63;5025145;28;20058;-39
2022/09/03 08:06:41;;;;;;;4.95;4.20;;;19.30;65.90;;;22.30;45.37;97307.22;5025033;28;20052;-39
2022/09/03 08:09:12;;;;;;;5.10;4.00;;;19.30;67.00;;;22.36;45.84;97320.63;5024532;28;20085;-39
2022/09/03 08:11:42;;;;;;;5.13;3.78;;;19.40;67.50;;;22.48;45.90;97314.31;5055880;28;20244;-39
2022/09/03 08:14:17;;;;;;;4.80;4.35;;;19.50;67.10;;;22.45;45.67;97320.22;5052660;28;20064;-39
2022/09/03 08:16:46;;;;;;;3.40;3.10;;;19.50;67.10;;;22.47;45.77;97318.91;5024585;28;20076;-39
2022/09/03 08:19:17;;;;;;;5.57;4.68;;;19.40;66.90;;;22.53;45.22;97326.06;5024506;28;20045;-39
2022/09/03 08:21:46;;;;;;;11.93;4.30;;;19.50;66.90;;;22.57;45.62;97329.94;5024265;28;20056;-39
2022/09/03 08:24:16;;;;;;;6.80;4.88;;;19.60;66.30;;;22.62;45.23;97331.88;5024464;28;20049;-39
2022/09/03 08:26:45;;;;;;;5.22;4.03;;;19.70;66.10;;;22.63;45.46;97333.53;5024623;28;20313;-40
2022/09/03 08:29:19;;;;;;;;;;;19.70;65.90;;;22.74;44.99;97329.94;5024551;28;20052;-40
2022/09/03 08:31:47;;;;;;;4.25;3.85;;;19.70;66.90;;;22.59;45.09;97338.63;5024378;28;20093;-39
2022/09/03 08:34:16;;;;;;;3.88;3.47;;;19.50;66.40;;;22.51;45.04;97336.34;5024105;28;20059;-39
2022/09/03 08:36:45;;;;;;;6.00;3.90;;;19.50;66.30;;;22.55;45.16;97339.38;5024402;28;20049;-39
2022/09/03 08:39:14;;;;;;;4.35;3.92;;;19.60;66.20;;;22.56;44.96;97343.72;5023886;28;20038;-39
2022/09/03 08:41:48;;;;;;;4.05;3.50;;;19.60;65.60;;;22.56;45.29;97341.81;5024253;28;20050;-39
2022/09/03 08:44:45;;;;;;;4.78;4.00;;;19.60;65.70;;;22.62;45.32;97342.75;5024019;28;20041;-39
2022/09/03 08:47:31;;;;;;;4.53;3.80;;;19.70;65.60;;;22.65;44.83;97344.16;5024159;28;20075;-39
2022/09/03 08:50:25;;;;;;;4.65;3.80;;;19.70;65.60;;;22.70;44.52;97341.50;5054690;28;20056;-40
2022/09/03 08:53:03;;;;;;;5.13;4.20;;;19.70;64.90;;;22.72;44.37;97347.50;5024131;28;20060;-39
2022/09/03 08:55:35;;;;;;;5.05;3.95;;;19.80;64.30;;;22.83;44.71;97352.03;5022536;28;20077;-39
2022/09/03 08:58:09;;;;;;;4.72;4.05;;;20.00;64.10;;;22.91;44.16;97354.31;5055536;28;20049;-39
2022/09/03 09:01:16;;;;;;;5.25;4.43;;;20.10;63.30;;;22.76;44.12;97359.50;5023795;28;20041;-40
2022/09/03 09:03:46;;;;;;;5.30;4.10;;;19.90;63.30;;;22.80;44.16;97366.13;5054628;28;20046;-40
2022/09/03 09:06:49;;;;;;;4.18;3.78;;;19.90;63.50;;;22.77;44.28;97367.41;5023518;28;20068;-40
2022/09/03 09:09:35;;;;;;;6.57;4.35;;;20.00;63.10;;;22.71;43.79;97368.41;5023626;28;20045;-40
2022/09/03 09:12:37;;;;;;;4.40;3.83;;;19.80;63.00;;;22.69;43.89;97367.81;5023792;28;20056;-39
2022/09/03 09:15:50;;;;;;;7.75;3.95;;;19.80;63.40;;;22.76;43.89;97367.66;5023577;28;20064;-40
2022/09/03 09:18:39;;;;;;;4.93;3.45;;;19.80;62.70;;;23.00;44.24;97363.72;5023416;28;20052;-39
2022/09/03 09:21:31;;;;;;;3.95;3.55;;;20.20;63.10;;;22.98;44.44;97371.28;5023492;28;20271;-40
2022/09/03 09:24:07;;;;;;;3.95;3.40;;;20.30;63.00;;;23.07;43.97;97381.75;5023167;28;20050;-41
2022/09/03 09:26:42;;;;;;;5.00;3.75;;;20.30;62.50;;;23.04;43.79;97376.84;5054032;28;20067;-41
2022/09/03 09:29:12;;;;;;;4.63;3.55;;;20.20;62.60;;;23.12;43.96;97382.66;5054894;28;20061;-40
2022/09/03 09:31:43;;;;;;;4.40;3.95;;;20.30;62.80;;;23.17;43.79;97377.31;5054617;28;20062;-41
2022/09/03 09:34:11;;;;;;;5.28;4.53;;;20.40;62.60;;;23.25;43.57;97376.06;5022995;28;20072;-42
2022/09/03 09:36:48;;;;;;;5.65;4.20;;;20.50;61.80;;;23.32;43.34;97363.13;5023425;28;20053;-42
2022/09/03 09:39:31;;;;;;;5.40;3.80;;;20.50;61.70;;;23.34;43.65;97371.00;5054652;28;20475;-41
2022/09/03 09:42:09;;;;;;;4.10;3.70;;;20.60;61.50;;;23.43;43.50;97352.41;5024568;28;20052;-40
2022/09/03 09:44:40;;;;;;;5.10;4.60;;;20.70;61.70;;;23.51;43.52;97355.50;5023927;28;20052;-41
2022/09/03 09:47:33;;;;;;;4.40;4.00;;;20.80;61.40;;;23.62;42.99;97351.03;5023229;28;20045;-41
2022/09/03 09:50:03;;;;;;;6.07;4.60;;;20.90;59.90;;;23.64;43.16;97346.16;5053589;28;20248;-41
2022/09/03 09:52:31;;;;;;;5.25;3.95;;;20.90;60.80;;;23.63;43.07;97341.78;5023489;28;20057;-41
2022/09/03 09:55:13;;;;;;;4.88;4.38;;;20.90;60.80;;;23.59;43.54;97341.50;5022777;28;20058;-43
2022/09/03 09:57:41;;;;;;;4.40;3.90;;;20.90;62.00;;;23.50;44.11;97336.75;5022631;28;20060;-40
2022/09/03 10:00:17;;;;;;;4.32;3.67;;;20.70;62.10;;;23.53;43.75;97350.63;5054408;28;20052;-41
2022/09/03 10:02:53;;;;;;;5.28;4.30;;;20.70;62.20;;;23.64;43.72;97350.78;5023730;28;20059;-41
2022/09/03 10:05:26;;;;;;;6.30;4.55;;;20.80;61.90;;;23.74;44.01;97353.63;5023372;28;20056;-41
2022/09/03 10:08:03;;;;;;;5.32;4.38;;;21.00;62.20;;;23.93;43.39;97344.09;5021542;28;20053;-41
2022/09/03 10:10:41;;;;;;;6.90;4.60;;;21.20;61.50;;;24.06;43.46;97340.16;5022748;28;20046;-40
2022/09/03 10:13:24;;;;;;;5.97;4.72;;;21.40;60.90;;;24.21;42.92;97335.97;5053428;28;20374;-40
2022/09/03 10:16:01;;;;;;;6.00;4.93;;;21.60;59.80;;;24.21;42.62;97331.31;5053515;28;20064;-40
2022/09/03 10:19:11;;;;;;;5.28;3.95;;;21.60;59.30;;;24.19;42.91;97330.75;5022333;28;20137;-40
2022/09/03 10:22:22;;;;;;;4.25;3.63;;;21.70;58.40;;;24.32;42.52;97324.91;5023080;28;20056;-40
2022/09/03 10:24:59;;;;;;;5.05;3.47;;;21.80;58.70;;;24.44;42.69;97319.31;5020250;28;20057;-40
2022/09/03 10:27:28;;;;;;;5.18;3.78;;;21.90;58.50;;;24.57;42.21;97326.25;5004556;28;20049;-40
2022/09/03 10:29:59;;;;;;;8.38;4.15;;;22.10;58.10;;;24.70;41.83;97338.63;5021946;28;20054;-40
2022/09/03 10:32:48;;;;;;;5.00;3.22;;;22.30;57.40;;;24.81;41.75;97331.34;5022946;28;20415;-40
2022/09/03 10:35:29;;;;;;;3.80;3.40;;;22.40;57.10;;;24.95;41.65;97325.22;5022206;28;20054;-40
2022/09/03 10:38:09;;;;;;;4.93;3.10;;;22.50;57.00;;;25.09;41.41;97317.41;5022615;28;20060;-40
2022/09/03 10:40:52;;;;;;;4.75;3.40;;;22.60;57.00;;;25.14;41.43;97322.03;5022353;28;20037;-40
2022/09/03 10:43:58;;;;;;;5.03;3.38;;;22.70;56.80;;;25.20;41.22;97322.91;5048211;28;20046;-40
2022/09/03 10:46:37;;;;;;;3.53;2.95;;;22.70;55.80;;;25.17;40.86;97323.44;5022470;28;20049;-40
2022/09/03 10:49:52;;;;;;;4.13;3.22;;;22.60;56.10;;;25.17;40.90;97320.72;5021782;28;20049;-40
2022/09/03 10:52:37;;;;;;;3.03;2.70;;;22.70;54.90;;;25.20;40.73;97307.38;5032659;28;20065;-42
2022/09/03 10:55:46;;;;;;;5.30;2.80;;;22.60;55.50;;;25.26;41.01;97313.69;5049330;28;20050;-40
2022/09/03 10:59:03;;;;;;;4.15;3.22;;;22.70;55.50;;;25.33;41.00;97311.56;5049237;28;20060;-42